sensor_id;sensor_type;location;lat;lon;timestamp;P1;durP1;ratioP1;P2;durP2;ratioP2
40290;SDS011;26000;48.304;13.626;2023-04-03T00:01:32;4.55;;;3.58;;
40290;SDS011;26000;48.304;13.626;2023-04-03T00:03:58;5.72;;;3.50;;
40290;SDS011;26000;48.304;13.626;2023-04-03T00:06:25;4.18;;;3.50;;
40290;SDS011;26000;48.304;13.626;2023-04-03T00:08:51;4.22;;;3.40;;
40290;SDS011;26000;48.304;13.626;2023-04-03T00:11:17;4.65;;;3.95;;
40290;SDS011;26000;48.304;13.626;2023-04-03T00:13:43;4.28;;;3.88;;
40290;SDS011;26000;48.304;13.626;2023-04-03T00:16:09;5.20;;;3.83;;
40290;SDS011;26000;48.304;13.626;2023-04-03T00:18:36;4.57;;;3.60;;
40290;SDS011;26000;48.304;13.626;2023-04-03T00:21:03;4.40;;;3.78;;
40290;SDS011;26000;48.304;13.626;2023-04-03T00:23:29;6.03;;;4.07;;
40290;SDS011;26000;48.304;13.626;2023-04-03T00:25:55;4.72;;;3.88;;
40290;SDS011;26000;48.304;13.626;2023-04-03T00:28:20;5.20;;;4.25;;
40290;SDS011;26000;48.304;13.626;2023-04-03T00:30:46;5.88;;;4.60;;
40290;SDS011;26000;48.304;13.626;2023-04-03T00:33:14;5.55;;;4.72;;
40290;SDS011;26000;48.304;13.626;2023-04-03T00:35:40;5.55;;;4.60;;
40290;SDS011;26000;48.304;13.626;2023-04-03T00:38:06;5.32;;;4.72;;
40290;SDS011;26000;48.304;13.626;2023-04-03T00:40:33;5.68;;;4.63;;
40290;SDS011;26000;48.304;13.626;2023-04-03T00:43:01;5.97;;;4.78;;
40290;SDS011;26000;48.304;13.626;2023-04-03T00:45:29;5.35;;;4.38;;
40290;SDS011;26000;48.304;13.626;2023-04-03T00:47:57;5.40;;;4.90;;
40290;SDS011;26000;48.304;13.626;2023-04-03T00:50:26;5.85;;;5.22;;
40290;SDS011;26000;48.304;13.626;2023-04-03T00:52:53;5.15;;;4.20;;
40290;SDS011;26000;48.304;13.626;2023-04-03T00:55:19;5.95;;;4.60;;
40290;SDS011;26000;48.304;13.626;2023-04-03T00:57:45;6.93;;;4.45;;
40290;SDS011;26000;48.304;13.626;2023-04-03T01:00:13;5.22;;;4.10;;
40290;SDS011;26000;48.304;13.626;2023-04-03T01:02:41;5.80;;;4.10;;
40290;SDS011;26000;48.304;13.626;2023-04-03T01:05:07;6.03;;;4.03;;
40290;SDS011;26000;48.304;13.626;2023-04-03T01:07:33;4.85;;;4.10;;
40290;SDS011;26000;48.304;13.626;2023-04-03T01:10:02;4.45;;;3.90;;
40290;SDS011;26000;48.304;13.626;2023-04-03T01:12:32;4.28;;;3.88;;
40290;SDS011;26000;48.304;13.626;2023-04-03T01:15:05;4.30;;;3.88;;
40290;SDS011;26000;48.304;13.626;2023-04-03T01:17:46;4.55;;;4.13;;
40290;SDS011;26000;48.304;13.626;2023-04-03T01:28:06;4.70;;;3.65;;
40290;SDS011;26000;48.304;13.626;2023-04-03T01:30:34;4.85;;;4.00;;
40290;SDS011;26000;48.304;13.626;2023-04-03T01:33:06;4.88;;;4.05;;
40290;SDS011;26000;48.304;13.626;2023-04-03T01:35:31;6.07;;;4.30;;
40290;SDS011;26000;48.304;13.626;2023-04-03T01:37:57;5.00;;;4.05;;
40290;SDS011;26000;48.304;13.626;2023-04-03T01:40:22;4.95;;;4.00;;
40290;SDS011;26000;48.304;13.626;2023-04-03T01:42:48;5.20;;;3.72;;
40290;SDS011;26000;48.304;13.626;2023-04-03T01:45:14;4.35;;;3.88;;
40290;SDS011;26000;48.304;13.626;2023-04-03T01:47:40;5.47;;;4.43;;
40290;SDS011;26000;48.304;13.626;2023-04-03T01:50:05;9.48;;;4.22;;
40290;SDS011;26000;48.304;13.626;2023-04-03T01:52:31;5.57;;;4.20;;
40290;SDS011;26000;48.304;13.626;2023-04-03T01:54:57;7.20;;;4.00;;
40290;SDS011;26000;48.304;13.626;2023-04-03T01:57:22;5.10;;;4.15;;
40290;SDS011;26000;48.304;13.626;2023-04-03T01:59:48;4.25;;;3.60;;
40290;SDS011;26000;48.304;13.626;2023-04-03T02:02:13;6.70;;;3.65;;
40290;SDS011;26000;48.304;13.626;2023-04-03T02:04:40;6.32;;;3.72;;
40290;SDS011;26000;48.304;13.626;2023-04-03T02:07:06;4.18;;;3.78;;
40290;SDS011;26000;48.304;13.626;2023-04-03T02:09:32;4.40;;;3.25;;
40290;SDS011;26000;48.304;13.626;2023-04-03T02:11:57;4.75;;;3.53;;
40290;SDS011;26000;48.304;13.626;2023-04-03T02:14:23;5.80;;;3.70;;
40290;SDS011;26000;48.304;13.626;2023-04-03T02:16:49;4.18;;;3.47;;
40290;SDS011;26000;48.304;13.626;2023-04-03T02:19:15;3.70;;;3.10;;
40290;SDS011;26000;48.304;13.626;2023-04-03T02:21:41;3.65;;;3.17;;
40290;SDS011;26000;48.304;13.626;2023-04-03T02:24:06;4.97;;;3.30;;
40290;SDS011;26000;48.304;13.626;2023-04-03T02:26:32;4.30;;;3.33;;
40290;SDS011;26000;48.304;13.626;2023-04-03T02:28:58;5.82;;;3.53;;
40290;SDS011;26000;48.304;13.626;2023-04-03T02:31:23;4.72;;;3.47;;
40290;SDS011;26000;48.304;13.626;2023-04-03T02:33:49;4.97;;;3.60;;
40290;SDS011;26000;48.304;13.626;2023-04-03T02:36:15;5.85;;;3.35;;
40290;SDS011;26000;48.304;13.626;2023-04-03T02:38:40;4.63;;;3.60;;
40290;SDS011;26000;48.304;13.626;2023-04-03T02:41:08;3.40;;;3.10;;
40290;SDS011;26000;48.304;13.626;2023-04-03T02:43:35;3.80;;;3.40;;
40290;SDS011;26000;48.304;13.626;2023-04-03T02:46:01;3.58;;;3.25;;
40290;SDS011;26000;48.304;13.626;2023-04-03T02:48:27;5.03;;;3.55;;
40290;SDS011;26000;48.304;13.626;2023-04-03T02:50:53;3.72;;;3.38;;
40290;SDS011;26000;48.304;13.626;2023-04-03T02:53:19;4.53;;;3.75;;
40290;SDS011;26000;48.304;13.626;2023-04-03T02:55:45;5.00;;;3.53;;
40290;SDS011;26000;48.304;13.626;2023-04-03T02:58:11;3.97;;;3.33;;
40290;SDS011;26000;48.304;13.626;2023-04-03T03:00:37;4.00;;;3.50;;
40290;SDS011;26000;48.304;13.626;2023-04-03T03:03:03;4.28;;;3.63;;
40290;SDS011;26000;48.304;13.626;2023-04-03T03:05:29;4.25;;;3.30;;
40290;SDS011;26000;48.304;13.626;2023-04-03T03:07:55;4.80;;;3.70;;
40290;SDS011;26000;48.304;13.626;2023-04-03T03:10:21;4.00;;;3.60;;
40290;SDS011;26000;48.304;13.626;2023-04-03T03:12:47;4.15;;;3.70;;
40290;SDS011;26000;48.304;13.626;2023-04-03T03:15:12;5.68;;;3.40;;
40290;SDS011;26000;48.304;13.626;2023-04-03T03:17:38;3.95;;;3.53;;
40290;SDS011;26000;48.304;13.626;2023-04-03T03:20:04;4.35;;;3.30;;
40290;SDS011;26000;48.304;13.626;2023-04-03T03:22:30;4.53;;;3.88;;
40290;SDS011;26000;48.304;13.626;2023-04-03T03:24:56;4.10;;;3.40;;
40290;SDS011;26000;48.304;13.626;2023-04-03T03:27:21;4.88;;;3.90;;
40290;SDS011;26000;48.304;13.626;2023-04-03T03:29:47;4.63;;;3.83;;
40290;SDS011;26000;48.304;13.626;2023-04-03T03:32:13;4.95;;;3.90;;
40290;SDS011;26000;48.304;13.626;2023-04-03T03:34:38;5.25;;;3.85;;
40290;SDS011;26000;48.304;13.626;2023-04-03T03:37:04;4.47;;;4.05;;
40290;SDS011;26000;48.304;13.626;2023-04-03T03:39:30;4.30;;;3.83;;
40290;SDS011;26000;48.304;13.626;2023-04-03T03:41:55;4.35;;;3.70;;
40290;SDS011;26000;48.304;13.626;2023-04-03T03:44:21;4.57;;;3.72;;
40290;SDS011;26000;48.304;13.626;2023-04-03T03:46:46;4.50;;;3.78;;
40290;SDS011;26000;48.304;13.626;2023-04-03T03:49:12;4.32;;;3.70;;
40290;SDS011;26000;48.304;13.626;2023-04-03T03:51:38;4.07;;;3.58;;
40290;SDS011;26000;48.304;13.626;2023-04-03T03:54:04;4.80;;;3.75;;
40290;SDS011;26000;48.304;13.626;2023-04-03T03:56:30;4.28;;;3.35;;
40290;SDS011;26000;48.304;13.626;2023-04-03T03:58:56;4.50;;;3.90;;
40290;SDS011;26000;48.304;13.626;2023-04-03T04:01:23;5.65;;;4.70;;
40290;SDS011;26000;48.304;13.626;2023-04-03T04:03:49;5.55;;;4.45;;
40290;SDS011;26000;48.304;13.626;2023-04-03T04:06:15;5.07;;;4.22;;
40290;SDS011;26000;48.304;13.626;2023-04-03T04:08:41;5.07;;;4.20;;
40290;SDS011;26000;48.304;13.626;2023-04-03T04:11:07;4.40;;;4.00;;
40290;SDS011;26000;48.304;13.626;2023-04-03T04:13:32;6.68;;;4.30;;
40290;SDS011;26000;48.304;13.626;2023-04-03T04:15:58;4.72;;;4.07;;
40290;SDS011;26000;48.304;13.626;2023-04-03T04:18:24;5.45;;;4.22;;
40290;SDS011;26000;48.304;13.626;2023-04-03T04:20:50;4.82;;;3.92;;
40290;SDS011;26000;48.304;13.626;2023-04-03T04:23:16;4.68;;;4.22;;
40290;SDS011;26000;48.304;13.626;2023-04-03T04:25:44;7.55;;;5.22;;
40290;SDS011;26000;48.304;13.626;2023-04-03T04:28:10;6.00;;;4.60;;
40290;SDS011;26000;48.304;13.626;2023-04-03T04:30:36;7.30;;;4.30;;
40290;SDS011;26000;48.304;13.626;2023-04-03T04:33:02;5.40;;;4.35;;
40290;SDS011;26000;48.304;13.626;2023-04-03T04:35:27;5.82;;;4.38;;
40290;SDS011;26000;48.304;13.626;2023-04-03T04:37:53;6.45;;;4.30;;
40290;SDS011;26000;48.304;13.626;2023-04-03T04:40:19;8.43;;;5.40;;
40290;SDS011;26000;48.304;13.626;2023-04-03T04:42:45;9.32;;;5.43;;
40290;SDS011;26000;48.304;13.626;2023-04-03T04:45:10;7.63;;;4.78;;
40290;SDS011;26000;48.304;13.626;2023-04-03T04:47:36;6.95;;;4.65;;
40290;SDS011;26000;48.304;13.626;2023-04-03T04:50:02;5.35;;;4.68;;
40290;SDS011;26000;48.304;13.626;2023-04-03T04:52:28;5.85;;;5.05;;
40290;SDS011;26000;48.304;13.626;2023-04-03T04:54:53;6.40;;;4.68;;
40290;SDS011;26000;48.304;13.626;2023-04-03T04:57:19;6.15;;;5.15;;
40290;SDS011;26000;48.304;13.626;2023-04-03T04:59:45;6.63;;;5.32;;
40290;SDS011;26000;48.304;13.626;2023-04-03T05:02:11;7.68;;;5.95;;
40290;SDS011;26000;48.304;13.626;2023-04-03T05:04:36;7.22;;;5.70;;
40290;SDS011;26000;48.304;13.626;2023-04-03T05:07:02;6.60;;;5.20;;
40290;SDS011;26000;48.304;13.626;2023-04-03T05:09:27;7.20;;;5.75;;
40290;SDS011;26000;48.304;13.626;2023-04-03T05:11:53;9.48;;;5.68;;
40290;SDS011;26000;48.304;13.626;2023-04-03T05:14:19;7.93;;;5.47;;
40290;SDS011;26000;48.304;13.626;2023-04-03T05:16:44;7.25;;;4.95;;
40290;SDS011;26000;48.304;13.626;2023-04-03T05:19:10;7.13;;;5.30;;
40290;SDS011;26000;48.304;13.626;2023-04-03T05:21:36;5.80;;;4.57;;
40290;SDS011;26000;48.304;13.626;2023-04-03T05:24:01;5.97;;;4.80;;
40290;SDS011;26000;48.304;13.626;2023-04-03T05:26:28;6.38;;;5.05;;
40290;SDS011;26000;48.304;13.626;2023-04-03T05:28:55;6.50;;;4.90;;
40290;SDS011;26000;48.304;13.626;2023-04-03T05:31:20;5.55;;;4.90;;
40290;SDS011;26000;48.304;13.626;2023-04-03T05:33:46;6.45;;;5.50;;
40290;SDS011;26000;48.304;13.626;2023-04-03T05:36:12;6.10;;;5.05;;
40290;SDS011;26000;48.304;13.626;2023-04-03T05:38:38;6.90;;;5.45;;
40290;SDS011;26000;48.304;13.626;2023-04-03T05:41:04;6.60;;;5.38;;
40290;SDS011;26000;48.304;13.626;2023-04-03T05:43:30;28.55;;;19.10;;
40290;SDS011;26000;48.304;13.626;2023-04-03T05:45:55;17.65;;;14.65;;
40290;SDS011;26000;48.304;13.626;2023-04-03T05:48:21;9.45;;;7.53;;
40290;SDS011;26000;48.304;13.626;2023-04-03T05:50:47;7.85;;;6.70;;
40290;SDS011;26000;48.304;13.626;2023-04-03T05:53:15;22.48;;;7.65;;
40290;SDS011;26000;48.304;13.626;2023-04-03T05:55:47;9.70;;;6.40;;
40290;SDS011;26000;48.304;13.626;2023-04-03T05:58:12;8.10;;;5.50;;
40290;SDS011;26000;48.304;13.626;2023-04-03T06:00:38;6.55;;;5.38;;
40290;SDS011;26000;48.304;13.626;2023-04-03T06:03:04;7.10;;;5.18;;
40290;SDS011;26000;48.304;13.626;2023-04-03T06:05:30;6.05;;;5.05;;
40290;SDS011;26000;48.304;13.626;2023-04-03T06:07:55;12.63;;;10.00;;
40290;SDS011;26000;48.304;13.626;2023-04-03T06:10:22;10.85;;;7.78;;
40290;SDS011;26000;48.304;13.626;2023-04-03T06:12:47;6.05;;;4.80;;
40290;SDS011;26000;48.304;13.626;2023-04-03T06:15:13;6.75;;;5.10;;
40290;SDS011;26000;48.304;13.626;2023-04-03T06:17:39;6.95;;;5.05;;
40290;SDS011;26000;48.304;13.626;2023-04-03T06:20:05;6.55;;;5.45;;
40290;SDS011;26000;48.304;13.626;2023-04-03T06:22:32;7.05;;;4.82;;
40290;SDS011;26000;48.304;13.626;2023-04-03T06:24:58;7.85;;;5.90;;
40290;SDS011;26000;48.304;13.626;2023-04-03T06:27:23;9.80;;;7.20;;
40290;SDS011;26000;48.304;13.626;2023-04-03T06:29:49;8.55;;;6.35;;
40290;SDS011;26000;48.304;13.626;2023-04-03T06:32:15;8.70;;;5.95;;
40290;SDS011;26000;48.304;13.626;2023-04-03T06:34:41;10.73;;;6.03;;
40290;SDS011;26000;48.304;13.626;2023-04-03T06:37:11;8.15;;;5.85;;
40290;SDS011;26000;48.304;13.626;2023-04-03T06:39:41;7.45;;;4.90;;
40290;SDS011;26000;48.304;13.626;2023-04-03T06:42:07;7.55;;;5.57;;
40290;SDS011;26000;48.304;13.626;2023-04-03T06:44:32;7.78;;;5.70;;
40290;SDS011;26000;48.304;13.626;2023-04-03T06:46:59;7.07;;;4.80;;
40290;SDS011;26000;48.304;13.626;2023-04-03T06:49:25;6.65;;;4.70;;
40290;SDS011;26000;48.304;13.626;2023-04-03T06:51:51;6.75;;;4.78;;
40290;SDS011;26000;48.304;13.626;2023-04-03T06:54:17;4.60;;;3.75;;
40290;SDS011;26000;48.304;13.626;2023-04-03T06:56:43;6.00;;;4.07;;
40290;SDS011;26000;48.304;13.626;2023-04-03T06:59:09;4.88;;;4.10;;
40290;SDS011;26000;48.304;13.626;2023-04-03T07:01:37;5.63;;;3.90;;
40290;SDS011;26000;48.304;13.626;2023-04-03T07:04:02;5.63;;;3.75;;
40290;SDS011;26000;48.304;13.626;2023-04-03T07:06:28;7.05;;;3.92;;
40290;SDS011;26000;48.304;13.626;2023-04-03T07:08:54;5.43;;;3.60;;
40290;SDS011;26000;48.304;13.626;2023-04-03T07:11:20;6.60;;;3.63;;
40290;SDS011;26000;48.304;13.626;2023-04-03T07:13:45;6.15;;;4.28;;
40290;SDS011;26000;48.304;13.626;2023-04-03T07:16:11;7.30;;;5.00;;
40290;SDS011;26000;48.304;13.626;2023-04-03T07:18:37;8.30;;;4.63;;
40290;SDS011;26000;48.304;13.626;2023-04-03T07:21:03;6.80;;;4.50;;
40290;SDS011;26000;48.304;13.626;2023-04-03T07:23:29;5.90;;;3.78;;
40290;SDS011;26000;48.304;13.626;2023-04-03T07:25:55;5.13;;;3.83;;
40290;SDS011;26000;48.304;13.626;2023-04-03T07:28:21;6.00;;;3.72;;
40290;SDS011;26000;48.304;13.626;2023-04-03T07:30:48;5.22;;;3.42;;
40290;SDS011;26000;48.304;13.626;2023-04-03T07:33:36;4.38;;;3.30;;
40290;SDS011;26000;48.304;13.626;2023-04-03T07:36:03;5.53;;;3.90;;
40290;SDS011;26000;48.304;13.626;2023-04-03T07:38:29;4.82;;;3.90;;
40290;SDS011;26000;48.304;13.626;2023-04-03T07:40:55;4.80;;;3.20;;
40290;SDS011;26000;48.304;13.626;2023-04-03T07:43:21;5.63;;;3.40;;
40290;SDS011;26000;48.304;13.626;2023-04-03T07:45:47;6.97;;;4.53;;
40290;SDS011;26000;48.304;13.626;2023-04-03T07:48:16;4.45;;;3.50;;
40290;SDS011;26000;48.304;13.626;2023-04-03T07:50:43;7.43;;;4.50;;
40290;SDS011;26000;48.304;13.626;2023-04-03T07:53:09;7.03;;;4.93;;
40290;SDS011;26000;48.304;13.626;2023-04-03T07:55:35;5.55;;;4.90;;
40290;SDS011;26000;48.304;13.626;2023-04-03T07:58:07;7.63;;;5.43;;
40290;SDS011;26000;48.304;13.626;2023-04-03T08:00:38;5.95;;;4.55;;
40290;SDS011;26000;48.304;13.626;2023-04-03T08:03:04;10.48;;;4.68;;
40290;SDS011;26000;48.304;13.626;2023-04-03T08:05:30;7.32;;;5.57;;
40290;SDS011;26000;48.304;13.626;2023-04-03T08:07:56;5.68;;;4.32;;
40290;SDS011;26000;48.304;13.626;2023-04-03T08:10:22;6.07;;;3.95;;
40290;SDS011;26000;48.304;13.626;2023-04-03T08:12:48;5.25;;;4.40;;
40290;SDS011;26000;48.304;13.626;2023-04-03T08:15:14;6.20;;;4.32;;
40290;SDS011;26000;48.304;13.626;2023-04-03T08:17:41;5.93;;;4.03;;
40290;SDS011;26000;48.304;13.626;2023-04-03T08:20:07;5.82;;;4.15;;
40290;SDS011;26000;48.304;13.626;2023-04-03T08:22:34;5.40;;;4.30;;
40290;SDS011;26000;48.304;13.626;2023-04-03T08:25:00;6.45;;;4.72;;
40290;SDS011;26000;48.304;13.626;2023-04-03T08:27:27;18.05;;;9.70;;
40290;SDS011;26000;48.304;13.626;2023-04-03T08:29:53;25.80;;;12.80;;
40290;SDS011;26000;48.304;13.626;2023-04-03T08:32:19;12.70;;;8.65;;
40290;SDS011;26000;48.304;13.626;2023-04-03T08:34:45;8.80;;;5.78;;
40290;SDS011;26000;48.304;13.626;2023-04-03T08:37:11;8.70;;;6.28;;
40290;SDS011;26000;48.304;13.626;2023-04-03T08:39:36;7.20;;;5.45;;
40290;SDS011;26000;48.304;13.626;2023-04-03T08:42:03;6.82;;;4.72;;
40290;SDS011;26000;48.304;13.626;2023-04-03T08:44:39;6.18;;;4.55;;
40290;SDS011;26000;48.304;13.626;2023-04-03T08:50:15;6.28;;;4.60;;
40290;SDS011;26000;48.304;13.626;2023-04-03T08:52:50;5.38;;;4.40;;
40290;SDS011;26000;48.304;13.626;2023-04-03T08:58:35;6.15;;;4.25;;
40290;SDS011;26000;48.304;13.626;2023-04-03T09:03:24;6.85;;;4.68;;
40290;SDS011;26000;48.304;13.626;2023-04-03T09:08:22;5.63;;;3.78;;
40290;SDS011;26000;48.304;13.626;2023-04-03T09:16:56;6.75;;;4.50;;
40290;SDS011;26000;48.304;13.626;2023-04-03T09:21:51;4.25;;;2.97;;
40290;SDS011;26000;48.304;13.626;2023-04-03T09:24:17;5.43;;;3.67;;
40290;SDS011;26000;48.304;13.626;2023-04-03T09:29:45;5.20;;;3.10;;
40290;SDS011;26000;48.304;13.626;2023-04-03T09:32:17;5.25;;;3.13;;
40290;SDS011;26000;48.304;13.626;2023-04-03T09:34:43;4.82;;;3.38;;
40290;SDS011;26000;48.304;13.626;2023-04-03T09:37:09;6.30;;;3.08;;
40290;SDS011;26000;48.304;13.626;2023-04-03T09:39:57;6.60;;;2.70;;
40290;SDS011;26000;48.304;13.626;2023-04-03T09:42:24;4.50;;;2.47;;
40290;SDS011;26000;48.304;13.626;2023-04-03T09:44:54;5.25;;;2.60;;
40290;SDS011;26000;48.304;13.626;2023-04-03T09:47:31;4.30;;;2.55;;
40290;SDS011;26000;48.304;13.626;2023-04-03T09:52:43;4.78;;;2.00;;
40290;SDS011;26000;48.304;13.626;2023-04-03T09:55:14;4.43;;;2.42;;
40290;SDS011;26000;48.304;13.626;2023-04-03T09:57:46;4.53;;;2.67;;
40290;SDS011;26000;48.304;13.626;2023-04-03T10:02:57;5.15;;;2.80;;
40290;SDS011;26000;48.304;13.626;2023-04-03T10:10:39;4.43;;;2.65;;
40290;SDS011;26000;48.304;13.626;2023-04-03T10:13:16;4.45;;;2.67;;
40290;SDS011;26000;48.304;13.626;2023-04-03T10:18:42;4.00;;;2.40;;
40290;SDS011;26000;48.304;13.626;2023-04-03T10:24:14;2.42;;;1.70;;
40290;SDS011;26000;48.304;13.626;2023-04-03T10:27:03;3.17;;;1.70;;
40290;SDS011;26000;48.304;13.626;2023-04-03T10:33:34;4.15;;;2.03;;
40290;SDS011;26000;48.304;13.626;2023-04-03T10:41:17;3.35;;;1.70;;
40290;SDS011;26000;48.304;13.626;2023-04-03T10:51:45;3.40;;;1.88;;
40290;SDS011;26000;48.304;13.626;2023-04-03T10:57:30;2.35;;;1.95;;
40290;SDS011;26000;48.304;13.626;2023-04-03T11:02:31;3.45;;;2.08;;
40290;SDS011;26000;48.304;13.626;2023-04-03T11:07:42;3.08;;;1.70;;
40290;SDS011;26000;48.304;13.626;2023-04-03T11:12:42;4.78;;;1.95;;
40290;SDS011;26000;48.304;13.626;2023-04-03T11:15:11;2.92;;;1.80;;
40290;SDS011;26000;48.304;13.626;2023-04-03T11:17:41;2.95;;;1.85;;
40290;SDS011;26000;48.304;13.626;2023-04-03T11:20:28;3.00;;;2.00;;
40290;SDS011;26000;48.304;13.626;2023-04-03T11:23:02;3.42;;;2.00;;
40290;SDS011;26000;48.304;13.626;2023-04-03T11:25:31;3.75;;;2.10;;
40290;SDS011;26000;48.304;13.626;2023-04-03T11:28:03;3.40;;;1.90;;
40290;SDS011;26000;48.304;13.626;2023-04-03T11:30:42;3.88;;;2.05;;
40290;SDS011;26000;48.304;13.626;2023-04-03T11:36:24;2.72;;;2.00;;
40290;SDS011;26000;48.304;13.626;2023-04-03T11:38:54;2.88;;;1.75;;
40290;SDS011;26000;48.304;13.626;2023-04-03T11:41:26;4.13;;;1.75;;
40290;SDS011;26000;48.304;13.626;2023-04-03T11:43:58;4.05;;;2.15;;
40290;SDS011;26000;48.304;13.626;2023-04-03T11:55:09;3.22;;;1.85;;
40290;SDS011;26000;48.304;13.626;2023-04-03T12:37:17;4.90;;;2.92;;
40290;SDS011;26000;48.304;13.626;2023-04-03T12:45:37;7.55;;;3.08;;
40290;SDS011;26000;48.304;13.626;2023-04-03T12:48:12;4.10;;;2.88;;
40290;SDS011;26000;48.304;13.626;2023-04-03T12:50:45;6.47;;;2.92;;
40290;SDS011;26000;48.304;13.626;2023-04-03T12:53:16;5.78;;;2.90;;
40290;SDS011;26000;48.304;13.626;2023-04-03T12:55:56;3.70;;;2.72;;
40290;SDS011;26000;48.304;13.626;2023-04-03T12:58:42;5.90;;;2.70;;
40290;SDS011;26000;48.304;13.626;2023-04-03T13:06:37;4.90;;;2.78;;
40290;SDS011;26000;48.304;13.626;2023-04-03T13:09:06;4.53;;;2.78;;
40290;SDS011;26000;48.304;13.626;2023-04-03T13:11:44;4.05;;;2.72;;
40290;SDS011;26000;48.304;13.626;2023-04-03T13:14:49;4.93;;;2.70;;
40290;SDS011;26000;48.304;13.626;2023-04-03T13:19:31;4.35;;;2.65;;
40290;SDS011;26000;48.304;13.626;2023-04-03T13:22:06;4.25;;;2.47;;
40290;SDS011;26000;48.304;13.626;2023-04-03T13:24:49;5.47;;;3.00;;
40290;SDS011;26000;48.304;13.626;2023-04-03T13:27:16;4.47;;;2.70;;
40290;SDS011;26000;48.304;13.626;2023-04-03T13:29:43;4.65;;;2.70;;
40290;SDS011;26000;48.304;13.626;2023-04-03T13:32:17;4.18;;;2.80;;
40290;SDS011;26000;48.304;13.626;2023-04-03T13:34:45;4.63;;;2.80;;
40290;SDS011;26000;48.304;13.626;2023-04-03T13:37:21;4.20;;;2.63;;
40290;SDS011;26000;48.304;13.626;2023-04-03T13:39:58;5.05;;;2.97;;
40290;SDS011;26000;48.304;13.626;2023-04-03T13:42:31;4.72;;;3.17;;
40290;SDS011;26000;48.304;13.626;2023-04-03T13:47:43;5.20;;;3.30;;
40290;SDS011;26000;48.304;13.626;2023-04-03T13:53:11;5.93;;;3.08;;
40290;SDS011;26000;48.304;13.626;2023-04-03T13:55:35;5.10;;;3.08;;
40290;SDS011;26000;48.304;13.626;2023-04-03T13:58:20;6.93;;;3.53;;
40290;SDS011;26000;48.304;13.626;2023-04-03T14:00:52;4.63;;;3.08;;
40290;SDS011;26000;48.304;13.626;2023-04-03T14:03:45;5.00;;;3.17;;
40290;SDS011;26000;48.304;13.626;2023-04-03T14:06:22;5.82;;;3.20;;
40290;SDS011;26000;48.304;13.626;2023-04-03T14:08:49;5.30;;;2.90;;
40290;SDS011;26000;48.304;13.626;2023-04-03T14:11:16;5.80;;;3.20;;
40290;SDS011;26000;48.304;13.626;2023-04-03T14:13:46;3.75;;;3.03;;
40290;SDS011;26000;48.304;13.626;2023-04-03T14:16:13;4.97;;;3.33;;
40290;SDS011;26000;48.304;13.626;2023-04-03T14:18:42;4.95;;;3.35;;
40290;SDS011;26000;48.304;13.626;2023-04-03T14:21:10;4.95;;;3.70;;
40290;SDS011;26000;48.304;13.626;2023-04-03T14:23:39;4.40;;;2.88;;
40290;SDS011;26000;48.304;13.626;2023-04-03T14:26:12;4.25;;;2.80;;
40290;SDS011;26000;48.304;13.626;2023-04-03T14:28:39;3.72;;;2.90;;
40290;SDS011;26000;48.304;13.626;2023-04-03T14:31:05;5.25;;;3.35;;
40290;SDS011;26000;48.304;13.626;2023-04-03T14:33:32;4.88;;;2.92;;
40290;SDS011;26000;48.304;13.626;2023-04-03T14:36:00;5.18;;;3.15;;
40290;SDS011;26000;48.304;13.626;2023-04-03T14:38:28;3.55;;;2.33;;
40290;SDS011;26000;48.304;13.626;2023-04-03T14:40:55;4.05;;;2.85;;
40290;SDS011;26000;48.304;13.626;2023-04-03T14:43:22;4.05;;;2.53;;
40290;SDS011;26000;48.304;13.626;2023-04-03T14:45:48;5.38;;;3.13;;
40290;SDS011;26000;48.304;13.626;2023-04-03T14:48:16;3.97;;;3.00;;
40290;SDS011;26000;48.304;13.626;2023-04-03T14:50:47;4.18;;;2.90;;
40290;SDS011;26000;48.304;13.626;2023-04-03T14:53:14;4.97;;;3.30;;
40290;SDS011;26000;48.304;13.626;2023-04-03T14:55:42;6.15;;;3.50;;
40290;SDS011;26000;48.304;13.626;2023-04-03T14:58:14;4.93;;;2.95;;
40290;SDS011;26000;48.304;13.626;2023-04-03T15:00:41;6.45;;;3.15;;
40290;SDS011;26000;48.304;13.626;2023-04-03T15:03:12;4.90;;;3.08;;
40290;SDS011;26000;48.304;13.626;2023-04-03T15:05:40;5.78;;;3.65;;
40290;SDS011;26000;48.304;13.626;2023-04-03T15:08:09;9.07;;;3.08;;
40290;SDS011;26000;48.304;13.626;2023-04-03T15:10:45;5.85;;;3.53;;
40290;SDS011;26000;48.304;13.626;2023-04-03T15:13:11;5.53;;;3.25;;
40290;SDS011;26000;48.304;13.626;2023-04-03T15:15:37;5.35;;;3.40;;
40290;SDS011;26000;48.304;13.626;2023-04-03T15:18:03;5.50;;;3.47;;
40290;SDS011;26000;48.304;13.626;2023-04-03T15:20:29;5.93;;;3.55;;
40290;SDS011;26000;48.304;13.626;2023-04-03T15:22:58;6.40;;;3.38;;
40290;SDS011;26000;48.304;13.626;2023-04-03T15:25:28;4.43;;;3.20;;
40290;SDS011;26000;48.304;13.626;2023-04-03T15:27:54;4.43;;;3.25;;
40290;SDS011;26000;48.304;13.626;2023-04-03T15:30:21;4.95;;;3.60;;
40290;SDS011;26000;48.304;13.626;2023-04-03T15:32:47;6.05;;;3.40;;
40290;SDS011;26000;48.304;13.626;2023-04-03T15:35:13;4.30;;;3.05;;
40290;SDS011;26000;48.304;13.626;2023-04-03T15:37:38;6.95;;;3.40;;
40290;SDS011;26000;48.304;13.626;2023-04-03T15:40:04;6.57;;;3.33;;
40290;SDS011;26000;48.304;13.626;2023-04-03T15:42:31;4.60;;;3.25;;
40290;SDS011;26000;48.304;13.626;2023-04-03T15:44:57;4.55;;;3.30;;
40290;SDS011;26000;48.304;13.626;2023-04-03T15:47:22;4.90;;;3.20;;
40290;SDS011;26000;48.304;13.626;2023-04-03T15:49:50;3.88;;;2.92;;
40290;SDS011;26000;48.304;13.626;2023-04-03T15:52:15;4.88;;;3.30;;
40290;SDS011;26000;48.304;13.626;2023-04-03T15:54:41;5.60;;;3.80;;
40290;SDS011;26000;48.304;13.626;2023-04-03T15:57:07;5.32;;;3.35;;
40290;SDS011;26000;48.304;13.626;2023-04-03T15:59:32;7.10;;;4.68;;
40290;SDS011;26000;48.304;13.626;2023-04-03T16:01:58;6.68;;;3.65;;
40290;SDS011;26000;48.304;13.626;2023-04-03T16:04:26;5.80;;;3.45;;
40290;SDS011;26000;48.304;13.626;2023-04-03T16:06:52;4.80;;;3.40;;
40290;SDS011;26000;48.304;13.626;2023-04-03T16:09:18;7.72;;;3.67;;
40290;SDS011;26000;48.304;13.626;2023-04-03T16:11:44;5.28;;;3.67;;
40290;SDS011;26000;48.304;13.626;2023-04-03T16:14:10;4.45;;;3.58;;
40290;SDS011;26000;48.304;13.626;2023-04-03T16:16:36;4.97;;;3.35;;
40290;SDS011;26000;48.304;13.626;2023-04-03T16:19:02;5.82;;;3.67;;
40290;SDS011;26000;48.304;13.626;2023-04-03T16:21:28;5.22;;;3.58;;
40290;SDS011;26000;48.304;13.626;2023-04-03T16:23:56;5.18;;;3.60;;
40290;SDS011;26000;48.304;13.626;2023-04-03T16:26:25;6.53;;;3.95;;
40290;SDS011;26000;48.304;13.626;2023-04-03T16:28:51;6.15;;;3.85;;
40290;SDS011;26000;48.304;13.626;2023-04-03T16:31:18;5.13;;;3.80;;
40290;SDS011;26000;48.304;13.626;2023-04-03T16:33:44;6.18;;;3.75;;
40290;SDS011;26000;48.304;13.626;2023-04-03T16:36:09;5.75;;;3.83;;
40290;SDS011;26000;48.304;13.626;2023-04-03T16:38:35;5.57;;;3.47;;
40290;SDS011;26000;48.304;13.626;2023-04-03T16:41:01;7.45;;;3.95;;
40290;SDS011;26000;48.304;13.626;2023-04-03T16:43:29;4.25;;;3.58;;
40290;SDS011;26000;48.304;13.626;2023-04-03T16:45:56;6.75;;;3.85;;
40290;SDS011;26000;48.304;13.626;2023-04-03T16:48:22;7.70;;;4.10;;
40290;SDS011;26000;48.304;13.626;2023-04-03T16:50:48;5.10;;;3.97;;
40290;SDS011;26000;48.304;13.626;2023-04-03T16:53:17;5.70;;;3.92;;
40290;SDS011;26000;48.304;13.626;2023-04-03T16:55:43;5.00;;;3.63;;
40290;SDS011;26000;48.304;13.626;2023-04-03T16:58:08;6.20;;;3.97;;
40290;SDS011;26000;48.304;13.626;2023-04-03T17:00:35;5.88;;;4.05;;
40290;SDS011;26000;48.304;13.626;2023-04-03T17:03:01;5.45;;;3.70;;